Pride — ZDFD7 — position and weather

sailwx.info

Track history (hours):
 
Tides and Currents Weather Stations Pressure Air Temp Water Temp Dewpoint Dewpoint Depression Visibility Wind Speed Wind Dir Waves Ship Positions

Pride

Last reported at 2014-Oct-31 16:32 UTC. Time now 2014-Oct-31 16:39 UTC.
Position N 53°29' E 014°37'.

Length 89 m; draft 5.1 m.

Type: Ship. MMSI: 236166000.

Date/timePositionNaut miles runAvg speedWind from/ knotsBaromVisibWave heightAir tempDewpointWater temp
2014-Oct-31 16:32N 53°29' E 014°37'0 0.0
2014-Oct-31 15:31N 53°29' E 014°37'0 0.0
2014-Oct-31 14:32N 53°29' E 014°37'0 0.0
2014-Oct-31 13:32N 53°29' E 014°37'0 0.0
2014-Oct-31 12:31N 53°29' E 014°37'0 0.0
2014-Oct-31 11:34N 53°29' E 014°37'0 0.0
2014-Oct-31 10:31N 53°29' E 014°37'0 0.0
2014-Oct-31 09:32N 53°29' E 014°37'0 0.0
2014-Oct-31 08:33N 53°29' E 014°37'0 0.0
2014-Oct-31 07:31N 53°29' E 014°37'0 0.0
2014-Oct-31 06:32N 53°29' E 014°37'0 0.0
2014-Oct-31 05:33N 53°29' E 014°37'0 0.0
2014-Oct-31 04:33N 53°29' E 014°37'0 0.0
2014-Oct-31 03:31N 53°29' E 014°37'0 0.0
2014-Oct-31 02:32N 53°29' E 014°37'0 0.0
2014-Oct-31 01:28N 53°29' E 014°37'0 0.0
2014-Oct-31 00:31N 53°29' E 014°37'0 0.0
2014-Oct-30 23:30N 53°29' E 014°37'0 0.0
2014-Oct-30 22:33N 53°29' E 014°37'0 0.0
2014-Oct-30 21:31N 53°29' E 014°37'0 0.0
2014-Oct-30 20:30N 53°29' E 014°37'0 0.0
2014-Oct-30 19:34N 53°29' E 014°37'6 5.6
2014-Oct-30 18:34N 53°34' E 014°36'10 9.6
2014-Oct-30 17:33N 53°43' E 014°28'1010.1
2014-Oct-30 16:33N 53°51' E 014°17'8 8.0
2014-Oct-30 15:34N 53°59' E 014°16'1010.1
2014-Oct-30 14:33N 54°07' E 014°26'9 0.9
2014-Oct-30 04:18N 54°14' E 014°35'810.2
2014-Oct-30 03:34N 54°08' E 014°28'1010.1
2014-Oct-30 02:34N 53°60' E 014°16'8 7.6
2014-Oct-30 01:34N 53°52' E 014°17'8 7.8
2014-Oct-30 00:34N 53°46' E 014°24'1010.3
2014-Oct-29 23:34N 53°38' E 014°35'9 9.4
2014-Oct-29 22:34N 53°29' E 014°37'4 3.8
2014-Oct-29 21:33N 53°25' E 014°36'0 0.0
2014-Oct-29 20:30N 53°25' E 014°36'0 0.0
2014-Oct-29 19:33N 53°25' E 014°36'0 0.0
2014-Oct-29 18:23N 53°25' E 014°36'0 0.0
2014-Oct-29 17:33N 53°25' E 014°36'0 0.0
2014-Oct-29 16:34N 53°25' E 014°36'0 0.0
2014-Oct-29 15:33N 53°25' E 014°36'0 0.0
2014-Oct-29 14:32N 53°25' E 014°36'5 5.4
2014-Oct-29 13:33N 53°30' E 014°37'8 8.5
2014-Oct-29 12:33N 53°38' E 014°34'10 9.6
2014-Oct-29 11:34N 53°46' E 014°24'8 8.3
2014-Oct-29 10:34N 53°53' E 014°16'8 7.7
2014-Oct-29 09:33N 54°00' E 014°15'10 9.9
2014-Oct-29 08:33N 54°10' E 014°12'24 9.6
2014-Oct-29 06:04N 54°30' E 013°48'34 9.5
2014-Oct-29 02:32N 54°59' E 013°20'11 9.6
2014-Oct-29 01:24N 55°07' E 013°07'10 9.0
2014-Oct-29 00:20N 55°13' E 012°54'7 8.9
2014-Oct-28 23:34N 55°16' E 012°44'7 6.8
2014-Oct-28 22:34N 55°23' E 012°39'9 8.8
2014-Oct-28 21:33N 55°31' E 012°42'10 9.8
2014-Oct-28 20:34N 55°41' E 012°41'10 9.7
2014-Oct-28 19:33N 55°51' E 012°39'9 9.3
2014-Oct-28 18:34N 55°60' E 012°37'9 8.6
2014-Oct-28 17:33N 56°07' E 012°30'1010.1
2014-Oct-28 16:33N 56°13' E 012°15'3013.0
2014-Oct-28 14:14N 56°41' E 011°54'2 3.6
2014-Oct-28 13:33N 56°39' E 011°55'9 8.6
2014-Oct-28 12:34N 56°47' E 011°51'9 8.8
2014-Oct-28 11:32N 56°55' E 011°45'8 8.6
2014-Oct-28 10:34N 57°03' E 011°40'11 8.9
2014-Oct-28 09:21N 57°14' E 011°33'7 8.9
2014-Oct-28 08:33N 57°20' E 011°29'9 9.0
2014-Oct-28 07:33N 57°28' E 011°22'10 9.7
2014-Oct-28 06:33N 57°35' E 011°08'9 9.1
2014-Oct-28 05:33N 57°42' E 010°57'1010.2
2014-Oct-28 04:33N 57°48' E 010°42'1110.8
2014-Oct-28 03:33N 57°50' E 010°22'79 6.5
2014-Oct-27 15:29N 59°05' E 009°38'  
2014-Oct-25 07:20N 59°08' E 009°37'0 0.0
2014-Oct-25 06:32N 59°08' E 009°37'0 0.0
2014-Oct-25 05:32N 59°08' E 009°37'0 0.0
2014-Oct-24 05:28N 59°08' E 009°37'0 0.0
2014-Oct-24 01:32N 59°08' E 009°37'1 0.1
2014-Oct-23 13:22N 59°06' E 009°37'37 9.6
2014-Oct-23 09:33N 58°33' E 010°07'1010.0
2014-Oct-23 08:33N 58°25' E 010°16'1010.2
2014-Oct-23 07:33N 58°15' E 010°23'1010.2
2014-Oct-23 06:33N 58°06' E 010°31'10 9.9
2014-Oct-23 05:33N 57°57' E 010°39'1010.0
2014-Oct-23 04:33N 57°48' E 010°49'10 9.5
2014-Oct-23 03:33N 57°39' E 010°45'152 8.7
2014-Oct-22 10:06N 55°11' E 009°46'5 8.5
2014-Oct-22 09:33N 55°07' E 009°43'4 3.1
2014-Oct-22 08:22N 55°06' E 009°37'0 0.0
2014-Oct-22 07:26N 55°06' E 009°37'0 0.0
2014-Oct-22 00:21N 55°06' E 009°37'0 0.0
2014-Oct-21 23:26N 55°06' E 009°37'  
Track history (hours):
 
Tides and Currents Weather Stations Pressure Air Temp Water Temp Dewpoint Dewpoint Depression Visibility Wind Speed Wind Dir Waves Ship Positions

Pride

Last reported at 2014-Oct-31 16:32 UTC. Time now 2014-Oct-31 16:39 UTC.
Position N 53°29' E 014°37'.

Length 89 m; draft 5.1 m.

Type: Ship. MMSI: 236166000.

Date/timePositionNaut miles runAvg speedWind from/ knotsBaromVisibWave heightAir tempDewpointWater temp
2014-Oct-31 16:32N 53°29' E 014°37'0 0.0
2014-Oct-31 15:31N 53°29' E 014°37'0 0.0
2014-Oct-31 14:32N 53°29' E 014°37'0 0.0
2014-Oct-31 13:32N 53°29' E 014°37'0 0.0
2014-Oct-31 12:31N 53°29' E 014°37'0 0.0
2014-Oct-31 11:34N 53°29' E 014°37'0 0.0
2014-Oct-31 10:31N 53°29' E 014°37'0 0.0
2014-Oct-31 09:32N 53°29' E 014°37'0 0.0
2014-Oct-31 08:33N 53°29' E 014°37'0 0.0
2014-Oct-31 07:31N 53°29' E 014°37'0 0.0
2014-Oct-31 06:32N 53°29' E 014°37'0 0.0
2014-Oct-31 05:33N 53°29' E 014°37'0 0.0
2014-Oct-31 04:33N 53°29' E 014°37'0 0.0
2014-Oct-31 03:31N 53°29' E 014°37'0 0.0
2014-Oct-31 02:32N 53°29' E 014°37'0 0.0
2014-Oct-31 01:28N 53°29' E 014°37'0 0.0
2014-Oct-31 00:31N 53°29' E 014°37'0 0.0
2014-Oct-30 23:30N 53°29' E 014°37'0 0.0
2014-Oct-30 22:33N 53°29' E 014°37'0 0.0
2014-Oct-30 21:31N 53°29' E 014°37'0 0.0
2014-Oct-30 20:30N 53°29' E 014°37'0 0.0
2014-Oct-30 19:34N 53°29' E 014°37'6 5.6
2014-Oct-30 18:34N 53°34' E 014°36'10 9.6
2014-Oct-30 17:33N 53°43' E 014°28'1010.1
2014-Oct-30 16:33N 53°51' E 014°17'8 8.0
2014-Oct-30 15:34N 53°59' E 014°16'1010.1
2014-Oct-30 14:33N 54°07' E 014°26'9 0.9
2014-Oct-30 04:18N 54°14' E 014°35'810.2
2014-Oct-30 03:34N 54°08' E 014°28'1010.1
2014-Oct-30 02:34N 53°60' E 014°16'8 7.6
2014-Oct-30 01:34N 53°52' E 014°17'8 7.8
2014-Oct-30 00:34N 53°46' E 014°24'1010.3
2014-Oct-29 23:34N 53°38' E 014°35'9 9.4
2014-Oct-29 22:34N 53°29' E 014°37'4 3.8
2014-Oct-29 21:33N 53°25' E 014°36'0 0.0
2014-Oct-29 20:30N 53°25' E 014°36'0 0.0
2014-Oct-29 19:33N 53°25' E 014°36'0 0.0
2014-Oct-29 18:23N 53°25' E 014°36'0 0.0
2014-Oct-29 17:33N 53°25' E 014°36'0 0.0
2014-Oct-29 16:34N 53°25' E 014°36'0 0.0
2014-Oct-29 15:33N 53°25' E 014°36'0 0.0
2014-Oct-29 14:32N 53°25' E 014°36'5 5.4
2014-Oct-29 13:33N 53°30' E 014°37'8 8.5
2014-Oct-29 12:33N 53°38' E 014°34'10 9.6
2014-Oct-29 11:34N 53°46' E 014°24'8 8.3
2014-Oct-29 10:34N 53°53' E 014°16'8 7.7
2014-Oct-29 09:33N 54°00' E 014°15'10 9.9
2014-Oct-29 08:33N 54°10' E 014°12'24 9.6
2014-Oct-29 06:04N 54°30' E 013°48'34 9.5
2014-Oct-29 02:32N 54°59' E 013°20'11 9.6
2014-Oct-29 01:24N 55°07' E 013°07'10 9.0
2014-Oct-29 00:20N 55°13' E 012°54'7 8.9
2014-Oct-28 23:34N 55°16' E 012°44'7 6.8
2014-Oct-28 22:34N 55°23' E 012°39'9 8.8
2014-Oct-28 21:33N 55°31' E 012°42'10 9.8
2014-Oct-28 20:34N 55°41' E 012°41'10 9.7
2014-Oct-28 19:33N 55°51' E 012°39'9 9.3
2014-Oct-28 18:34N 55°60' E 012°37'9 8.6
2014-Oct-28 17:33N 56°07' E 012°30'1010.1
2014-Oct-28 16:33N 56°13' E 012°15'3013.0
2014-Oct-28 14:14N 56°41' E 011°54'2 3.6
2014-Oct-28 13:33N 56°39' E 011°55'9 8.6
2014-Oct-28 12:34N 56°47' E 011°51'9 8.8
2014-Oct-28 11:32N 56°55' E 011°45'8 8.6
2014-Oct-28 10:34N 57°03' E 011°40'11 8.9
2014-Oct-28 09:21N 57°14' E 011°33'7 8.9
2014-Oct-28 08:33N 57°20' E 011°29'9 9.0
2014-Oct-28 07:33N 57°28' E 011°22'10 9.7
2014-Oct-28 06:33N 57°35' E 011°08'9 9.1
2014-Oct-28 05:33N 57°42' E 010°57'1010.2
2014-Oct-28 04:33N 57°48' E 010°42'1110.8
2014-Oct-28 03:33N 57°50' E 010°22'79 6.5
2014-Oct-27 15:29N 59°05' E 009°38'  
2014-Oct-25 07:20N 59°08' E 009°37'0 0.0
2014-Oct-25 06:32N 59°08' E 009°37'0 0.0
2014-Oct-25 05:32N 59°08' E 009°37'0 0.0
2014-Oct-24 05:28N 59°08' E 009°37'0 0.0
2014-Oct-24 01:32N 59°08' E 009°37'1 0.1
2014-Oct-23 13:22N 59°06' E 009°37'37 9.6
2014-Oct-23 09:33N 58°33' E 010°07'1010.0
2014-Oct-23 08:33N 58°25' E 010°16'1010.2
2014-Oct-23 07:33N 58°15' E 010°23'1010.2
2014-Oct-23 06:33N 58°06' E 010°31'10 9.9
2014-Oct-23 05:33N 57°57' E 010°39'1010.0
2014-Oct-23 04:33N 57°48' E 010°49'10 9.5
2014-Oct-23 03:33N 57°39' E 010°45'152 8.7
2014-Oct-22 10:06N 55°11' E 009°46'5 8.5
2014-Oct-22 09:33N 55°07' E 009°43'4 3.1
2014-Oct-22 08:22N 55°06' E 009°37'0 0.0
2014-Oct-22 07:26N 55°06' E 009°37'0 0.0
2014-Oct-22 00:21N 55°06' E 009°37'0 0.0
2014-Oct-21 23:26N 55°06' E 009°37'  

Dump ship's entire track history